createdAt,value
2017-07-20T00:00:06.045Z,17.80
2017-07-20T00:02:34.998Z,17.50
2017-07-20T00:05:03.981Z,17.50
2017-07-20T00:07:32.954Z,17.40
2017-07-20T00:10:02.030Z,17.50
2017-07-20T00:12:30.982Z,17.50
2017-07-20T00:14:59.974Z,17.50
2017-07-20T00:17:28.948Z,17.50
2017-07-20T00:19:57.882Z,17.50
2017-07-20T00:22:26.830Z,17.50
2017-07-20T00:24:55.874Z,17.50
2017-07-20T00:27:24.897Z,17.50
2017-07-20T00:29:53.863Z,17.50
2017-07-20T00:32:22.903Z,17.50
2017-07-20T00:34:52.036Z,17.60
2017-07-20T00:37:21.012Z,17.50
2017-07-20T00:39:49.994Z,17.60
2017-07-20T00:42:19.009Z,17.50
2017-07-20T00:44:47.975Z,17.50
2017-07-20T00:47:16.938Z,17.40
2017-07-20T00:49:45.934Z,17.40
2017-07-20T00:52:14.938Z,17.40
2017-07-20T00:54:44.358Z,17.30
2017-07-20T00:57:13.338Z,17.30
2017-07-20T00:59:43.957Z,17.20
2017-07-20T01:02:12.937Z,17.20
2017-07-20T01:07:20.038Z,17.20
2017-07-20T01:09:49.022Z,17.20
2017-07-20T01:12:18.022Z,17.10
2017-07-20T01:14:46.966Z,17.10
2017-07-20T01:17:15.957Z,17.10
2017-07-20T01:19:44.906Z,17.00
2017-07-20T01:22:13.907Z,17.00
2017-07-20T01:24:42.859Z,17.00
2017-07-20T01:27:11.822Z,17.00
2017-07-20T01:29:40.750Z,17.00
2017-07-20T01:32:09.776Z,17.00
2017-07-20T01:34:38.821Z,17.00
2017-07-20T01:37:07.822Z,16.90
2017-07-20T01:39:36.855Z,16.90
2017-07-20T01:42:05.827Z,17.00
2017-07-20T01:44:34.848Z,17.00
2017-07-20T01:47:03.860Z,17.00
2017-07-20T01:49:32.891Z,17.00
2017-07-20T01:52:01.905Z,17.00
2017-07-20T01:54:30.903Z,17.00
2017-07-20T01:56:59.894Z,16.90
2017-07-20T01:59:28.960Z,16.90
2017-07-20T02:01:58.055Z,16.90
2017-07-20T02:04:27.091Z,16.90
2017-07-20T02:06:56.529Z,16.90
2017-07-20T02:09:25.552Z,16.90
2017-07-20T02:11:54.565Z,16.90
2017-07-20T02:14:23.562Z,16.90
2017-07-20T02:16:52.497Z,16.90
2017-07-20T02:19:21.472Z,16.90
2017-07-20T02:21:50.466Z,16.90
2017-07-20T02:24:20.037Z,16.90
2017-07-20T02:26:49.035Z,16.80
2017-07-20T02:29:18.106Z,16.90
2017-07-20T02:31:47.278Z,16.80
2017-07-20T02:34:16.446Z,16.80
2017-07-20T02:36:45.436Z,16.70
2017-07-20T02:39:14.420Z,16.70
2017-07-20T02:41:43.367Z,16.70
2017-07-20T02:44:12.374Z,16.80
2017-07-20T02:46:41.321Z,16.80
2017-07-20T02:49:10.317Z,16.80
2017-07-20T02:51:39.342Z,16.90
2017-07-20T02:54:08.321Z,17.00
2017-07-20T02:56:37.259Z,17.30
2017-07-20T02:59:06.253Z,17.70
2017-07-20T03:01:35.197Z,17.90
2017-07-20T03:04:04.152Z,17.90
2017-07-20T03:06:33.133Z,18.10
2017-07-20T03:09:02.093Z,18.20
2017-07-20T03:11:31.051Z,18.20
2017-07-20T03:14:00.069Z,18.30
2017-07-20T03:16:29.076Z,18.40
2017-07-20T03:18:58.063Z,18.40
2017-07-20T03:21:27.037Z,18.30
2017-07-20T03:23:56.089Z,18.30
2017-07-20T03:26:25.085Z,18.50
2017-07-20T03:28:54.069Z,18.60
2017-07-20T03:31:23.106Z,18.70
2017-07-20T03:33:52.501Z,18.80
2017-07-20T03:36:21.519Z,18.80
2017-07-20T03:38:50.457Z,18.90
2017-07-20T03:42:38.804Z,18.90
2017-07-20T03:45:07.802Z,18.40
2017-07-20T03:47:36.751Z,18.00
2017-07-20T03:50:05.716Z,17.80
2017-07-20T03:52:34.683Z,17.60
2017-07-20T03:55:03.683Z,17.70
2017-07-20T03:57:32.637Z,17.60
2017-07-20T04:00:01.608Z,17.60
2017-07-20T04:05:05.769Z,17.50
2017-07-20T04:07:34.729Z,17.40
2017-07-20T04:10:03.716Z,17.30
2017-07-20T04:12:32.694Z,17.10
2017-07-20T04:16:20.771Z,17.10
2017-07-20T04:18:49.817Z,17.10
2017-07-20T04:21:18.842Z,17.30
2017-07-20T04:23:47.842Z,17.60
2017-07-20T04:26:16.852Z,17.90
2017-07-20T04:28:45.889Z,18.10
2017-07-20T04:31:14.877Z,18.50
2017-07-20T04:33:43.864Z,18.70
2017-07-20T04:36:12.843Z,18.90
2017-07-20T04:38:41.858Z,19.10
2017-07-20T04:41:10.842Z,19.20
2017-07-20T04:43:40.287Z,19.30
2017-07-20T04:46:09.562Z,19.40
2017-07-20T04:48:38.564Z,19.60
2017-07-20T04:51:38.121Z,19.60
2017-07-20T04:54:07.175Z,19.60
2017-07-20T04:56:36.188Z,19.70
2017-07-20T04:59:05.222Z,19.70
2017-07-20T05:01:34.189Z,19.90
2017-07-20T05:04:03.171Z,20.10
2017-07-20T05:06:32.163Z,20.10
2017-07-20T05:09:01.160Z,20.00
2017-07-20T05:11:30.197Z,19.90
2017-07-20T05:13:59.220Z,19.90
2017-07-20T05:16:28.172Z,19.90
2017-07-20T05:18:57.338Z,19.80
2017-07-20T05:21:26.410Z,19.90
2017-07-20T05:23:59.489Z,19.90
2017-07-20T05:26:28.503Z,19.90
2017-07-20T05:28:57.499Z,19.90
2017-07-20T05:31:26.549Z,19.90
2017-07-20T05:35:14.890Z,19.90
2017-07-20T05:37:43.927Z,19.90
2017-07-20T05:40:13.001Z,19.90
2017-07-20T05:42:42.709Z,19.80
2017-07-20T05:45:11.735Z,19.80
2017-07-20T05:47:40.734Z,19.80
2017-07-20T05:50:09.777Z,19.70
2017-07-20T05:52:38.821Z,19.70
2017-07-20T05:55:08.168Z,19.70
2017-07-20T05:58:39.596Z,19.60
2017-07-20T06:01:08.613Z,19.60
2017-07-20T06:03:37.689Z,19.60
2017-07-20T06:06:06.673Z,19.50
2017-07-20T06:08:35.671Z,19.60
2017-07-20T06:11:04.663Z,19.40
2017-07-20T06:13:33.689Z,19.40
2017-07-20T06:16:02.714Z,19.30
2017-07-20T06:18:31.700Z,19.30
2017-07-20T06:21:00.715Z,19.20
2017-07-20T06:23:29.759Z,19.10
2017-07-20T06:25:58.770Z,19.10
2017-07-20T06:28:27.848Z,18.90
2017-07-20T06:30:56.826Z,18.90
2017-07-20T06:33:25.825Z,18.90
2017-07-20T06:35:54.861Z,18.80
2017-07-20T06:38:23.914Z,18.80
2017-07-20T06:40:52.911Z,18.80
2017-07-20T06:43:21.915Z,18.80
2017-07-20T06:45:50.945Z,18.90
2017-07-20T06:48:19.965Z,18.90
2017-07-20T06:50:48.954Z,18.90
2017-07-20T06:53:17.953Z,18.90
2017-07-20T06:55:46.973Z,18.90
2017-07-20T06:58:15.992Z,18.90
2017-07-20T07:00:45.001Z,19.00
2017-07-20T07:03:14.039Z,19.00
2017-07-20T07:05:43.064Z,19.00
2017-07-20T07:08:12.081Z,19.00
2017-07-20T07:10:41.215Z,19.00
2017-07-20T07:13:10.455Z,19.00
2017-07-20T07:15:39.555Z,19.00
2017-07-20T07:18:08.574Z,19.10
2017-07-20T07:20:37.894Z,19.10
2017-07-20T07:23:06.991Z,19.20
2017-07-20T07:25:36.046Z,19.30
2017-07-20T07:28:05.097Z,19.50
2017-07-20T07:30:34.112Z,19.50
2017-07-20T07:33:03.118Z,19.60
2017-07-20T07:35:32.176Z,19.60
2017-07-20T07:38:01.259Z,19.70
2017-07-20T07:40:30.399Z,19.80
2017-07-20T07:42:59.533Z,19.90
2017-07-20T07:45:28.636Z,20.00
2017-07-20T07:47:57.688Z,20.10
2017-07-20T07:50:26.736Z,20.30
2017-07-20T07:52:55.798Z,20.60
2017-07-20T07:55:24.831Z,20.80
2017-07-20T07:57:53.919Z,20.80
2017-07-20T08:00:22.989Z,20.70
2017-07-20T08:02:52.068Z,20.80
2017-07-20T08:05:21.205Z,20.90
2017-07-20T08:07:50.456Z,21.00
2017-07-20T08:10:19.963Z,21.10
2017-07-20T08:12:49.102Z,21.20
2017-07-20T08:15:18.205Z,21.20
2017-07-20T08:17:47.257Z,21.40
2017-07-20T08:20:16.316Z,21.50
2017-07-20T08:22:45.381Z,21.60
2017-07-20T08:25:14.427Z,21.80
2017-07-20T08:27:43.456Z,21.80
2017-07-20T08:30:12.510Z,21.80
2017-07-20T08:32:41.550Z,21.80
2017-07-20T08:35:10.638Z,21.70
2017-07-20T08:37:39.767Z,21.60
2017-07-20T08:40:08.998Z,21.40
2017-07-20T08:42:53.577Z,21.20
2017-07-20T08:45:22.732Z,21.10
2017-07-20T08:47:51.829Z,20.90
2017-07-20T08:50:20.849Z,20.70
2017-07-20T08:52:49.910Z,20.50
2017-07-20T08:55:18.952Z,20.40
2017-07-20T08:57:47.990Z,20.30
2017-07-20T09:00:17.034Z,20.30
2017-07-20T09:02:46.225Z,20.40
2017-07-20T09:05:15.271Z,20.50
2017-07-20T09:07:44.282Z,20.70
2017-07-20T09:10:13.247Z,20.90
2017-07-20T09:12:42.307Z,21.20
2017-07-20T09:15:11.415Z,21.60
2017-07-20T09:17:41.409Z,22.00
2017-07-20T09:20:11.779Z,22.10
2017-07-20T09:22:40.826Z,22.00
2017-07-20T09:25:09.973Z,21.80
2017-07-20T09:27:39.068Z,21.60
2017-07-20T09:30:08.400Z,21.40
2017-07-20T09:32:37.530Z,21.20
2017-07-20T09:35:21.227Z,21.20
2017-07-20T09:37:50.324Z,21.20
2017-07-20T09:40:19.450Z,21.10
2017-07-20T09:42:48.629Z,21.00
2017-07-20T09:45:26.525Z,20.90
2017-07-20T09:47:55.900Z,20.80
2017-07-20T09:50:31.564Z,20.60
2017-07-20T09:53:00.640Z,20.40
2017-07-20T09:55:29.690Z,20.30
2017-07-20T09:57:58.758Z,20.10
2017-07-20T10:00:27.827Z,20.00
2017-07-20T10:02:56.851Z,19.90
2017-07-20T10:05:25.888Z,19.90
2017-07-20T10:07:54.955Z,19.90
2017-07-20T10:10:23.987Z,19.90
2017-07-20T10:12:53.081Z,19.90
2017-07-20T10:15:22.162Z,19.80
2017-07-20T10:20:29.390Z,19.60
2017-07-20T10:22:58.478Z,19.70
2017-07-20T10:25:27.527Z,19.70
2017-07-20T10:27:56.749Z,19.70
2017-07-20T10:30:26.722Z,19.70
2017-07-20T10:32:55.797Z,19.70
2017-07-20T10:35:24.887Z,19.60
2017-07-20T10:37:53.928Z,19.40
2017-07-20T10:40:23.002Z,19.40
2017-07-20T10:42:52.174Z,19.30
2017-07-20T10:45:21.255Z,19.30
2017-07-20T10:47:50.667Z,19.40
2017-07-20T10:50:19.799Z,19.40
2017-07-20T10:52:48.904Z,19.40
2017-07-20T10:55:18.005Z,19.50
2017-07-20T10:57:47.055Z,19.60
2017-07-20T11:00:16.102Z,19.60
2017-07-20T11:02:45.180Z,19.60
2017-07-20T11:05:14.250Z,19.70
2017-07-20T11:07:43.321Z,19.70
2017-07-20T11:10:12.408Z,19.80
2017-07-20T11:12:41.412Z,19.90
2017-07-20T11:15:10.542Z,20.00
2017-07-20T11:17:39.605Z,20.20
2017-07-20T11:20:09.205Z,20.40
2017-07-20T11:22:38.285Z,20.50
2017-07-20T11:25:07.326Z,20.70
2017-07-20T11:27:36.384Z,20.70
2017-07-20T11:30:05.466Z,20.70
2017-07-20T11:32:34.500Z,20.70
2017-07-20T11:35:03.557Z,20.70
2017-07-20T11:37:32.610Z,21.00
2017-07-20T11:40:01.710Z,21.70
2017-07-20T11:42:30.896Z,21.90
2017-07-20T11:45:00.093Z,21.80
2017-07-20T11:47:29.881Z,21.60
2017-07-20T11:50:10.138Z,21.60
2017-07-20T11:52:39.207Z,21.70
2017-07-20T11:55:08.258Z,22.00
2017-07-20T11:57:37.312Z,22.30
2017-07-20T12:00:06.398Z,22.70
2017-07-20T12:02:35.526Z,23.00
2017-07-20T12:05:04.705Z,22.90
2017-07-20T12:07:33.763Z,22.80
2017-07-20T12:10:02.879Z,22.70
2017-07-20T12:12:31.942Z,22.70
2017-07-20T12:15:01.080Z,22.60
2017-07-20T12:17:30.184Z,22.60
2017-07-20T12:19:59.574Z,22.70
2017-07-20T12:22:28.660Z,22.70
2017-07-20T12:24:57.696Z,22.70
2017-07-20T12:27:26.771Z,22.80
2017-07-20T12:29:55.930Z,22.70
2017-07-20T12:32:25.014Z,22.70
2017-07-20T12:34:54.073Z,22.80
2017-07-20T12:37:23.403Z,22.60
2017-07-20T12:39:52.494Z,22.80
2017-07-20T12:42:21.576Z,23.00
2017-07-20T12:44:50.660Z,23.00
2017-07-20T12:47:19.742Z,23.10
2017-07-20T12:49:48.781Z,23.20
2017-07-20T12:52:17.795Z,23.40
2017-07-20T12:54:46.891Z,23.10
2017-07-20T12:57:15.935Z,23.10
2017-07-20T12:59:45.030Z,23.30
2017-07-20T13:02:14.090Z,23.70
2017-07-20T13:04:43.076Z,24.00
2017-07-20T13:07:12.089Z,24.00
2017-07-20T13:09:41.242Z,23.80
2017-07-20T13:12:10.286Z,23.60
2017-07-20T13:14:39.333Z,23.20
2017-07-20T13:17:08.384Z,23.20
2017-07-20T13:19:37.389Z,23.00
2017-07-20T13:22:06.431Z,23.10
2017-07-20T13:24:35.442Z,23.10
2017-07-20T13:27:04.485Z,22.80
2017-07-20T13:29:33.476Z,22.70
2017-07-20T13:32:02.518Z,22.60
2017-07-20T13:34:31.614Z,22.70
2017-07-20T13:37:00.628Z,22.70
2017-07-20T13:39:29.755Z,22.80
2017-07-20T13:41:59.036Z,23.00
2017-07-20T13:44:28.078Z,23.30
2017-07-20T13:46:57.220Z,23.30
2017-07-20T13:49:26.325Z,23.10
2017-07-20T13:51:55.382Z,22.90
2017-07-20T13:54:24.447Z,22.70
2017-07-20T13:56:53.559Z,22.60
2017-07-20T13:59:22.653Z,22.60
2017-07-20T14:01:57.195Z,22.50
2017-07-20T14:04:26.414Z,22.60
2017-07-20T14:06:55.583Z,23.00
2017-07-20T14:09:24.807Z,23.40
2017-07-20T14:11:53.970Z,23.50
2017-07-20T14:14:23.009Z,23.40
2017-07-20T14:16:52.175Z,23.30
2017-07-20T14:19:21.476Z,23.20
2017-07-20T14:21:50.682Z,23.10
2017-07-20T14:24:19.712Z,22.90
2017-07-20T14:26:49.041Z,23.00
2017-07-20T14:29:18.121Z,23.10
2017-07-20T14:31:47.365Z,23.20
2017-07-20T14:34:16.784Z,23.10
2017-07-20T14:36:45.799Z,23.20
2017-07-20T14:39:14.878Z,23.60
2017-07-20T14:41:43.869Z,23.80
2017-07-20T14:44:13.000Z,24.00
2017-07-20T14:46:41.999Z,24.20
2017-07-20T14:49:11.089Z,24.20
2017-07-20T14:51:40.172Z,24.20
2017-07-20T14:54:09.241Z,24.00
2017-07-20T14:56:38.264Z,23.90
2017-07-20T14:59:07.327Z,24.00
2017-07-20T15:01:46.280Z,24.10
2017-07-20T15:04:15.280Z,24.10
2017-07-20T15:06:44.317Z,24.10
2017-07-20T15:09:13.311Z,24.00
2017-07-20T15:11:42.459Z,23.50
2017-07-20T15:14:11.556Z,23.30
2017-07-20T15:16:40.625Z,23.10
2017-07-20T15:19:09.722Z,23.00
2017-07-20T15:21:38.840Z,23.10
2017-07-20T15:24:07.903Z,23.00
2017-07-20T15:26:37.096Z,23.00
2017-07-20T15:29:06.118Z,23.10
2017-07-20T15:31:35.255Z,23.10
2017-07-20T15:34:04.493Z,23.00
2017-07-20T15:36:33.626Z,23.00
2017-07-20T15:39:02.787Z,22.80
2017-07-20T15:41:32.042Z,22.90
2017-07-20T15:44:01.223Z,22.90
2017-07-20T15:46:30.332Z,23.20
2017-07-20T15:48:59.477Z,23.30
2017-07-20T15:51:28.479Z,23.40
2017-07-20T15:53:57.558Z,23.50
2017-07-20T15:56:26.550Z,23.70
2017-07-20T15:58:55.859Z,23.70
2017-07-20T16:04:03.219Z,23.80
2017-07-20T16:06:32.331Z,23.80
2017-07-20T16:09:01.469Z,23.80
2017-07-20T16:11:30.638Z,23.90
2017-07-20T16:13:59.644Z,23.90
2017-07-20T16:16:28.707Z,23.90
2017-07-20T16:18:57.748Z,23.90
2017-07-20T16:21:26.832Z,24.00
2017-07-20T16:24:03.194Z,23.90
2017-07-20T16:26:32.437Z,23.80
2017-07-20T16:31:46.132Z,23.50
2017-07-20T16:34:15.700Z,23.40
2017-07-20T16:36:46.693Z,23.50
2017-07-20T16:39:16.122Z,23.70
2017-07-20T16:41:45.222Z,23.60
2017-07-20T16:44:14.310Z,23.60
2017-07-20T16:46:43.455Z,23.80
2017-07-20T16:49:12.738Z,23.60
2017-07-20T16:51:41.914Z,23.60
2017-07-20T16:54:11.086Z,23.60
2017-07-20T16:56:40.135Z,23.50
2017-07-20T16:59:09.189Z,23.40
2017-07-20T17:01:38.296Z,23.20
2017-07-20T17:04:08.575Z,23.20
2017-07-20T17:06:37.848Z,23.20
2017-07-20T17:09:06.981Z,23.30
2017-07-20T17:11:36.284Z,23.30
2017-07-20T17:14:05.675Z,23.30
2017-07-20T17:16:34.906Z,23.30
2017-07-20T17:19:04.351Z,23.10
2017-07-20T17:21:34.051Z,23.00
2017-07-20T17:24:03.869Z,22.80
2017-07-20T17:26:33.325Z,22.70
2017-07-20T17:31:40.613Z,22.50
2017-07-20T17:34:09.967Z,22.40
2017-07-20T17:36:39.464Z,22.30
2017-07-20T17:39:08.771Z,22.30
2017-07-20T17:41:38.097Z,22.30
2017-07-20T17:44:07.404Z,22.30
2017-07-20T17:46:36.632Z,22.30
2017-07-20T17:49:06.011Z,22.50
2017-07-20T17:51:35.341Z,22.30
2017-07-20T17:54:04.731Z,22.30
2017-07-20T17:56:33.982Z,22.30
2017-07-20T17:59:03.537Z,22.20
2017-07-20T18:01:32.952Z,22.20
2017-07-20T18:04:02.023Z,22.20
2017-07-20T18:06:31.663Z,22.10
2017-07-20T18:09:00.808Z,22.00
2017-07-20T18:11:29.982Z,22.00
2017-07-20T18:13:59.011Z,22.00
2017-07-20T18:16:28.268Z,21.90
2017-07-20T18:18:57.346Z,21.80
2017-07-20T18:21:26.453Z,21.90
2017-07-20T18:23:55.534Z,21.80
2017-07-20T18:26:24.645Z,21.80
2017-07-20T18:28:53.810Z,21.70
2017-07-20T18:31:23.116Z,21.70
2017-07-20T18:33:52.210Z,21.70
2017-07-20T18:36:21.225Z,21.70
2017-07-20T18:38:50.289Z,21.70
2017-07-20T18:41:20.744Z,21.70
2017-07-20T18:43:49.825Z,21.70
2017-07-20T18:46:18.952Z,21.70
2017-07-20T18:48:47.974Z,21.70
2017-07-20T18:51:17.451Z,21.70
2017-07-20T18:53:46.487Z,21.70
2017-07-20T18:56:16.319Z,21.60
2017-07-20T18:58:45.409Z,21.60
2017-07-20T19:01:14.590Z,21.60
2017-07-20T19:03:43.675Z,21.50
2017-07-20T19:06:12.790Z,21.40
2017-07-20T19:08:41.925Z,21.40
2017-07-20T19:11:10.935Z,21.30
2017-07-20T19:13:39.981Z,21.20
2017-07-20T19:17:11.543Z,21.10
2017-07-20T19:19:40.548Z,21.00
2017-07-20T19:22:09.770Z,20.90
2017-07-20T19:24:39.174Z,20.80
2017-07-20T19:27:08.241Z,20.80
2017-07-20T19:29:37.307Z,20.80
2017-07-20T19:32:06.565Z,20.90
2017-07-20T19:34:35.578Z,20.80
2017-07-20T19:37:04.651Z,20.80
2017-07-20T19:39:33.706Z,20.80
2017-07-20T19:42:03.089Z,20.70
2017-07-20T19:44:32.149Z,20.60
2017-07-20T19:47:31.610Z,20.50
2017-07-20T19:50:00.808Z,20.60
2017-07-20T19:52:29.949Z,20.40
2017-07-20T19:54:58.982Z,20.30
2017-07-20T19:57:28.208Z,20.20
2017-07-20T19:59:57.704Z,20.20
2017-07-20T20:02:26.868Z,20.20
2017-07-20T20:04:55.855Z,20.10
2017-07-20T20:07:24.967Z,20.00
2017-07-20T20:09:54.065Z,20.00
2017-07-20T20:12:23.385Z,20.00
2017-07-20T20:14:52.417Z,20.00
2017-07-20T20:17:21.497Z,20.00
2017-07-20T20:19:52.698Z,20.10
2017-07-20T20:22:21.735Z,20.00
2017-07-20T20:24:51.525Z,19.90
2017-07-20T20:27:20.578Z,19.90
2017-07-20T20:29:49.626Z,19.90
2017-07-20T20:32:18.733Z,20.00
2017-07-20T20:34:47.717Z,20.00
2017-07-20T20:37:16.751Z,19.90
2017-07-20T20:39:45.815Z,19.90
2017-07-20T20:42:14.797Z,19.90
2017-07-20T20:44:43.857Z,19.90
2017-07-20T20:47:12.917Z,19.90
2017-07-20T20:49:41.891Z,19.90
2017-07-20T20:52:10.892Z,19.90
2017-07-20T20:54:39.953Z,19.90
2017-07-20T20:57:08.943Z,19.90
2017-07-20T20:59:37.904Z,19.80
2017-07-20T21:02:06.908Z,19.80
2017-07-20T21:04:35.905Z,19.80
2017-07-20T21:07:04.859Z,19.80
2017-07-20T21:09:34.683Z,19.80
2017-07-20T21:12:03.674Z,19.80
2017-07-20T21:14:32.774Z,19.70
2017-07-20T21:17:01.767Z,19.70
2017-07-20T21:19:30.757Z,19.60
2017-07-20T21:21:59.826Z,19.60
2017-07-20T21:24:28.878Z,19.50
2017-07-20T21:26:57.849Z,19.40
2017-07-20T21:29:26.821Z,19.40
2017-07-20T21:31:55.881Z,19.50
2017-07-20T21:34:24.860Z,19.50
2017-07-20T21:36:54.138Z,19.40
2017-07-20T21:39:23.212Z,19.40
2017-07-20T21:41:52.211Z,19.40
2017-07-20T21:44:21.229Z,19.30
2017-07-20T21:46:50.185Z,19.30
2017-07-20T21:49:19.163Z,19.30
2017-07-20T21:51:48.143Z,19.20
2017-07-20T21:54:17.116Z,19.20
2017-07-20T21:56:46.075Z,19.20
2017-07-20T21:59:15.044Z,19.20
2017-07-20T22:01:44.113Z,19.20
2017-07-20T22:04:13.129Z,19.20
2017-07-20T22:09:20.301Z,19.20
2017-07-20T22:11:49.322Z,19.10
2017-07-20T22:14:18.329Z,19.10
2017-07-20T22:16:47.298Z,19.10
2017-07-20T22:19:16.284Z,19.00
2017-07-20T22:21:45.262Z,19.00
2017-07-20T22:24:14.296Z,19.00
2017-07-20T22:26:43.321Z,19.00
2017-07-20T22:29:12.292Z,18.90
2017-07-20T22:31:41.312Z,18.90
2017-07-20T22:34:10.281Z,18.80
2017-07-20T22:36:39.282Z,18.80
2017-07-20T22:39:08.269Z,18.80
2017-07-20T22:41:37.305Z,18.70
2017-07-20T22:44:06.278Z,18.70
2017-07-20T22:46:35.312Z,18.70
2017-07-20T22:49:04.315Z,18.70
2017-07-20T22:51:33.309Z,18.70
2017-07-20T22:54:02.454Z,18.60
2017-07-20T22:56:31.478Z,18.50
2017-07-20T22:59:00.450Z,18.40
2017-07-20T23:01:29.470Z,18.40
2017-07-20T23:04:02.587Z,18.40
2017-07-20T23:06:31.885Z,18.30
2017-07-20T23:09:00.868Z,18.30
2017-07-20T23:11:29.862Z,18.30
2017-07-20T23:13:58.890Z,18.20
2017-07-20T23:16:27.893Z,18.20
2017-07-20T23:18:56.910Z,18.10
2017-07-20T23:21:25.904Z,18.10
2017-07-20T23:23:54.893Z,18.10
2017-07-20T23:26:23.912Z,18.10
2017-07-20T23:28:54.178Z,18.00
2017-07-20T23:31:23.229Z,18.00
2017-07-20T23:33:53.747Z,17.90
2017-07-20T23:36:23.004Z,17.90
2017-07-20T23:38:51.966Z,17.80
2017-07-20T23:41:20.944Z,17.80
2017-07-20T23:43:49.945Z,17.80
2017-07-20T23:46:18.925Z,17.70
2017-07-20T23:49:18.389Z,17.70
2017-07-20T23:51:47.355Z,17.70
2017-07-20T23:54:16.378Z,17.70
2017-07-20T23:56:45.346Z,17.60
